Time;durP1;ratioP1;P1;durP2;ratioP2;P2;SDS_P1;SDS_P2;PMS_P1;PMS_P2;Temp;Humidity;BMP_temperature;BMP_pressure;BME280_temperature;BME280_humidity;BME280_pressure;Samples;Min_cycle;Max_cycle;Signal;HPM_P1;HPM_P2
2023/02/18 00:00:19;;;;;;;32.97;13.15;;;;;;;12.53;76.70;102306.38;4985082;28;20121;-44
2023/02/18 00:02:45;;;;;;;34.38;13.27;;;;;;;12.89;75.82;102294.28;4963726;28;20038;-44
2023/02/18 00:05:11;;;;;;;35.05;13.55;;;;;;;13.02;74.99;102292.88;4985634;28;20400;-43
2023/02/18 00:07:39;;;;;;;35.95;13.95;;;;;;;12.68;76.39;102295.44;4981647;28;20030;-44
2023/02/18 00:10:07;;;;;;;32.50;13.27;;;;;;;13.06;75.17;102294.72;4985860;28;20035;-43
2023/02/18 00:12:32;;;;;;;33.53;14.02;;;;;;;13.22;74.39;102289.06;4986268;28;20038;-45
2023/02/18 00:14:57;;;;;;;33.35;14.07;;;;;;;13.21;74.67;102289.03;4982843;28;20108;-47
2023/02/18 00:17:23;;;;;;;31.65;13.65;;;;;;;13.06;74.75;102288.59;4968965;28;20450;-46
2023/02/18 00:19:48;;;;;;;35.45;15.25;;;;;;;12.91;75.60;102286.47;4983308;28;20572;-43
2023/02/18 00:22:14;;;;;;;36.65;14.68;;;;;;;13.11;75.46;102281.75;4984901;28;20030;-46
2023/02/18 00:24:39;;;;;;;37.92;14.68;;;;;;;12.92;75.98;102280.41;4981618;28;20038;-43
2023/02/18 00:27:05;;;;;;;34.13;14.77;;;;;;;13.08;75.33;102279.94;4985202;28;20044;-48
2023/02/18 00:29:31;;;;;;;38.28;15.07;;;;;;;13.40;74.31;102260.72;4984286;28;20117;-47
2023/02/18 00:31:56;;;;;;;36.00;14.98;;;;;;;13.34;74.93;102267.53;4981431;28;20528;-45
2023/02/18 00:34:21;;;;;;;39.55;16.25;;;;;;;13.06;75.52;102267.66;4984812;28;20065;-44
2023/02/18 00:36:47;;;;;;;36.58;16.58;;;;;;;13.64;73.73;102270.88;4980431;28;20400;-50
2023/02/18 00:39:12;;;;;;;38.50;16.38;;;;;;;12.96;75.26;102272.66;4984791;28;20038;-48
2023/02/18 00:41:38;;;;;;;40.03;16.58;;;;;;;12.97;75.77;102263.06;4965359;28;20039;-43
2023/02/18 00:44:05;;;;;;;42.20;17.63;;;;;;;12.90;75.87;102266.38;4984726;28;20444;-44
2023/02/18 00:46:30;;;;;;;40.33;17.02;;;;;;;12.92;76.66;102256.84;4985007;28;20404;-44
2023/02/18 00:48:56;;;;;;;44.85;17.73;;;;;;;12.85;77.04;102257.53;4982540;28;20046;-43
2023/02/18 00:51:22;;;;;;;41.72;17.00;;;;;;;13.14;76.39;102260.91;4985584;28;20523;-46
2023/02/18 00:53:48;;;;;;;46.28;17.60;;;;;;;13.47;74.89;102248.66;4981837;28;20039;-47
2023/02/18 00:56:14;;;;;;;34.92;16.48;;;;;;;13.71;73.85;102249.22;4984887;28;20114;-45
2023/02/18 00:58:39;;;;;;;43.67;17.50;;;;;;;13.13;75.39;102256.50;4980349;28;20173;-48
2023/02/18 01:01:06;;;;;;;40.45;17.48;;;;;;;13.16;75.94;102256.59;4984672;28;20046;-43
2023/02/18 01:03:32;;;;;;;44.80;17.38;;;;;;;13.40;75.00;102254.59;4984285;28;20164;-45
2023/02/18 01:05:57;;;;;;;39.80;16.83;;;;;;;13.17;75.44;102255.78;4962791;28;20030;-44
2023/02/18 01:08:22;;;;;;;40.00;17.33;;;;;;;13.31;75.60;102255.25;4984845;28;20516;-46
2023/02/18 01:10:51;;;;;;;40.47;17.30;;;;;;;13.20;75.48;102248.84;4980696;28;20103;-45
2023/02/18 01:13:17;;;;;;;43.15;17.55;;;;;;;13.17;75.82;102248.81;4984398;28;20129;-43
2023/02/18 01:15:42;;;;;;;45.25;17.90;;;;;;;13.02;76.35;102245.75;4980969;28;20469;-44
2023/02/18 01:18:08;;;;;;;41.70;17.73;;;;;;;13.31;75.67;102231.66;4967311;28;20038;-45
2023/02/18 01:20:36;;;;;;;42.03;17.77;;;;;;;13.23;75.43;102228.00;4984855;28;20057;-45
2023/02/18 01:23:01;;;;;;;44.28;17.48;;;;;;;13.73;74.23;102217.75;4981230;28;20042;-49
2023/02/18 01:25:27;;;;;;;39.33;17.30;;;;;;;13.59;74.36;102216.59;4984711;28;20046;-46
2023/02/18 01:27:52;;;;;;;43.40;17.75;;;;;;;13.23;75.36;102217.53;4980605;28;20041;-44
2023/02/18 01:30:18;;;;;;;40.15;17.08;;;;;;;13.42;75.37;102221.44;4984274;28;20038;-45
2023/02/18 01:32:44;;;;;;;37.30;16.85;;;;;;;13.51;74.67;102228.63;4980783;28;20064;-48
2023/02/18 01:35:12;;;;;;;42.45;16.83;;;;;;;13.34;75.57;102228.25;4984611;28;20089;-42
2023/02/18 01:37:38;;;;;;;40.13;16.90;;;;;;;13.37;75.44;102216.09;4981045;28;20038;-44
2023/02/18 01:40:05;;;;;;;34.95;15.60;;;;;;;13.52;74.76;102223.44;4985384;28;20085;-43
2023/02/18 01:42:30;;;;;;;38.38;15.35;;;;;;;13.53;74.42;102212.09;4985062;28;20056;-44
2023/02/18 01:45:33;;;;;;;34.33;14.73;;;;;;;13.48;74.74;102203.22;4980835;28;20494;-45
2023/02/18 01:48:14;;;;;;;34.47;14.80;;;;;;;13.18;75.28;102203.41;4980962;28;20030;-45
2023/02/18 01:50:47;;;;;;;34.22;15.07;;;;;;;13.17;75.95;102208.63;4980444;28;20034;-44
2023/02/18 01:53:16;;;;;;;37.22;14.80;;;;;;;13.26;75.09;102200.97;4966955;28;20034;-42
2023/02/18 01:55:41;;;;;;;34.92;14.63;;;;;;;13.46;74.42;102197.09;4983826;28;20066;-44
2023/02/18 01:58:07;;;;;;;33.25;14.55;;;;;;;13.37;74.34;102199.50;4980538;28;20046;-44
2023/02/18 02:00:33;;;;;;;34.33;14.70;;;;;;;13.25;75.50;102200.09;4984363;28;20279;-43
2023/02/18 02:02:58;;;;;;;36.55;14.75;;;;;;;13.50;74.96;102192.78;4980375;28;20038;-47
2023/02/18 02:05:26;;;;;;;38.67;15.48;;;;;;;13.15;76.17;102184.13;4984468;28;20118;-46
2023/02/18 02:07:53;;;;;;;37.08;15.27;;;;;;;13.42;75.29;102166.41;4981166;28;20042;-48
2023/02/18 02:10:19;;;;;;;33.83;15.57;;;;;;;13.27;75.67;102160.84;4986457;28;20051;-46
2023/02/18 02:13:23;;;;;;;42.28;15.43;;;;;;;13.02;76.76;102162.88;4984326;28;20077;-42
2023/02/18 02:16:00;;;;;;;41.17;16.20;;;;;;;13.28;76.44;102160.00;4953244;28;20038;-44
2023/02/18 02:18:30;;;;;;;38.25;15.32;;;;;;;13.44;75.73;102154.25;4988113;28;20074;-45
2023/02/18 02:21:17;;;;;;;40.10;15.30;;;;;;;13.58;75.08;102157.19;4987470;28;20030;-43
2023/02/18 02:24:07;;;;;;;37.13;15.48;;;;;;;13.60;74.94;102153.72;4989054;28;20047;-44
2023/02/18 02:27:06;;;;;;;43.88;16.25;;;;;;;13.34;76.49;102134.84;4992823;28;20070;-45
2023/02/18 02:30:02;;;;;;;38.22;15.68;;;;;;;13.27;76.28;102122.44;4987107;28;20397;-48
2023/02/18 02:33:10;;;;;;;36.10;15.18;;;;;;;13.57;75.55;102118.72;4986946;28;20098;-45
2023/02/18 02:35:51;;;;;;;35.55;15.07;;;;;;;13.40;76.44;102105.28;4992433;28;20057;-45
2023/02/18 02:38:25;;;;;;;39.65;14.60;;;;;;;13.57;75.66;102100.38;4995086;28;20042;-43
2023/02/18 02:40:51;;;;;;;;;;;;;;;13.57;75.84;102090.78;4989006;28;20180;-43
2023/02/18 02:43:45;;;;;;;34.93;13.87;;;;;;;13.37;76.54;102086.84;4992528;28;19964;-49
2023/02/18 02:46:18;;;;;;;35.47;14.30;;;;;;;13.61;75.94;102074.25;4988545;28;20312;-44
2023/02/18 02:49:11;;;;;;;34.05;14.15;;;;;;;13.35;76.49;102076.38;4987841;28;20041;-43
2023/02/18 02:51:46;;;;;;;31.40;13.50;;;;;;;13.55;76.33;102081.09;4988892;28;20041;-44
2023/02/18 02:54:23;;;;;;;29.95;13.23;;;;;;;13.67;75.78;102078.72;4990775;28;20468;-45
2023/02/18 02:56:48;;;;;;;28.88;12.18;;;;;;;13.45;75.73;102082.66;4985226;28;20061;-45
2023/02/18 02:59:19;;;;;;;28.40;11.45;;;;;;;13.59;75.10;102070.75;4990801;28;20443;-43
2023/02/18 03:02:02;;;;;;;24.02;9.82;;;;;;;13.46;75.27;102070.47;4985693;28;20401;-46
2023/02/18 03:04:28;;;;;;;21.00;8.80;;;;;;;13.23;75.82;102069.97;4991002;28;20061;-44
2023/02/18 03:07:15;;;;;;;22.48;8.82;;;;;;;13.11;75.85;102064.44;4985934;28;20038;-48
2023/02/18 03:09:57;;;;;;;19.15;7.90;;;;;;;13.23;76.06;102064.75;4987145;28;20061;-57
2023/02/18 03:12:45;;;;;;;16.15;7.90;;;;;;;13.21;76.50;102063.81;4989083;28;20109;-44
2023/02/18 03:15:23;;;;;;;17.05;7.47;;;;;;;13.36;75.64;102065.00;4984945;28;20124;-43
2023/02/18 03:18:07;;;;;;;16.90;7.05;;;;;;;13.32;75.77;102057.94;4984788;28;20571;-47
2023/02/18 03:20:36;;;;;;;15.02;6.40;;;;;;;13.09;76.57;102047.81;4989491;28;20465;-46
2023/02/18 03:23:05;;;;;;;17.23;6.45;;;;;;;13.23;76.15;102049.03;4985457;28;20034;-45
2023/02/18 03:25:33;;;;;;;13.30;6.40;;;;;;;13.22;76.19;102035.06;4989761;28;20488;-43
2023/02/18 03:28:06;;;;;;;15.40;6.78;;;;;;;13.26;76.38;102023.78;4983198;28;20034;-43
2023/02/18 03:30:38;;;;;;;15.00;6.97;;;;;;;13.00;76.87;102022.31;4986835;28;20046;-43
2023/02/18 03:33:08;;;;;;;16.83;7.45;;;;;;;12.60;79.03;102015.31;4982508;28;20483;-45
2023/02/18 03:35:35;;;;;;;14.52;6.88;;;;;;;12.65;79.33;102013.66;4986001;28;20497;-44
2023/02/18 03:38:24;;;;;;;19.42;7.82;;;;;;;12.87;78.63;102010.69;4982097;28;20038;-43
2023/02/18 03:40:50;;;;;;;17.00;8.00;;;;;;;12.83;79.21;102010.59;4986818;28;20307;-43
2023/02/18 03:43:15;;;;;;;19.13;8.00;;;;;;;12.97;78.92;102007.44;4991305;28;20030;-42
2023/02/18 03:45:40;;;;;;;18.45;8.35;;;;;;;12.84;79.19;101994.03;4988742;28;20031;-43
2023/02/18 03:48:06;;;;;;;19.42;8.32;;;;;;;12.86;79.62;102003.72;4990014;28;20038;-43
2023/02/18 03:50:31;;;;;;;18.50;8.38;;;;;;;12.77;79.30;102003.47;4989309;28;20453;-46
2023/02/18 03:52:57;;;;;;;19.70;8.90;;;;;;;12.60;80.32;101994.38;4983759;28;20042;-48
2023/02/18 03:55:22;;;;;;;19.65;8.98;;;;;;;12.77;80.27;102002.59;4985523;28;20376;-45
2023/02/18 03:57:48;;;;;;;21.58;9.60;;;;;;;12.85;79.87;102004.53;4982529;28;20038;-44
2023/02/18 04:00:13;;;;;;;23.17;9.77;;;;;;;12.77;79.66;101998.25;4985121;28;20073;-43
2023/02/18 04:02:39;;;;;;;24.23;11.23;;;;;;;12.60;80.37;101997.00;4981389;28;20042;-42
2023/02/18 04:05:05;;;;;;;24.52;11.10;;;;;;;12.59;80.39;102000.44;4985250;28;20037;-43
2023/02/18 04:07:31;;;;;;;26.08;11.68;;;;;;;12.58;80.77;101999.56;4985677;28;20488;-46
2023/02/18 04:09:56;;;;;;;30.45;12.35;;;;;;;12.67;80.39;101991.06;4982208;28;20038;-43
2023/02/18 04:12:22;;;;;;;31.73;13.18;;;;;;;12.58;81.11;101988.22;4986475;28;20037;-46
2023/02/18 04:14:47;;;;;;;30.20;13.00;;;;;;;12.64;81.07;101982.22;4965602;28;20044;-44
2023/02/18 04:17:12;;;;;;;30.58;12.30;;;;;;;12.48;80.79;101981.00;4985914;28;20046;-46
2023/02/18 04:19:38;;;;;;;31.63;12.95;;;;;;;12.80;79.95;101974.78;4983278;28;20047;-45
2023/02/18 04:22:03;;;;;;;33.03;12.48;;;;;;;12.71;80.51;101973.69;4984953;28;20401;-43
2023/02/18 04:24:28;;;;;;;29.60;12.15;;;;;;;12.66;80.96;101975.31;4985874;28;20027;-43
2023/02/18 04:26:54;;;;;;;32.53;11.18;;;;;;;12.70;80.84;101975.41;4982457;28;20069;-44
2023/02/18 04:29:19;;;;;;;28.77;11.50;;;;;;;12.53;81.35;101974.16;4985241;28;20026;-46
2023/02/18 04:31:44;;;;;;;30.90;11.75;;;;;;;12.56;81.21;101974.25;4984622;28;20038;-42
2023/02/18 04:34:10;;;;;;;31.05;11.95;;;;;;;12.81;80.13;101970.41;4982527;28;20034;-43
2023/02/18 04:36:35;;;;;;;29.23;11.70;;;;;;;12.76;80.12;101969.44;4986257;28;20038;-42
2023/02/18 04:39:00;;;;;;;30.63;11.57;;;;;;;12.68;80.52;101955.31;4982135;28;20181;-43
2023/02/18 04:41:26;;;;;;;28.02;11.27;;;;;;;12.45;82.00;101954.78;4985475;28;20038;-43
2023/02/18 04:43:51;;;;;;;30.60;11.85;;;;;;;12.81;80.54;101934.66;4983272;28;20037;-44
2023/02/18 04:46:17;;;;;;;30.17;11.27;;;;;;;12.82;79.67;101931.19;4986363;28;20022;-44
2023/02/18 04:48:42;;;;;;;29.08;11.68;;;;;;;12.72;80.10;101929.25;4981723;28;20034;-46
2023/02/18 04:51:07;;;;;;;31.20;12.23;;;;;;;12.49;81.29;101925.25;4985740;28;20112;-45
2023/02/18 04:53:33;;;;;;;27.83;12.23;;;;;;;12.38;80.80;101921.50;4985301;28;20084;-44
2023/02/18 04:55:58;;;;;;;28.88;11.82;;;;;;;12.79;80.42;101939.00;4982098;28;20038;-43
2023/02/18 04:58:24;;;;;;;31.08;12.25;;;;;;;12.59;80.97;101942.91;4985590;28;20046;-42
2023/02/18 05:00:49;;;;;;;27.15;11.93;;;;;;;12.67;80.32;101940.47;4982979;28;20049;-47
2023/02/18 05:03:15;;;;;;;30.65;12.52;;;;;;;12.93;79.78;101939.25;4985129;28;20401;-42
2023/02/18 05:05:40;;;;;;;28.65;12.02;;;;;;;12.64;80.27;101943.00;4980928;28;20377;-45
2023/02/18 05:08:07;;;;;;;31.98;12.40;;;;;;;12.15;81.63;101924.47;4985196;28;20575;-47
2023/02/18 05:10:33;;;;;;;26.52;12.38;;;;;;;12.63;81.01;101928.13;4985229;28;20038;-43
2023/02/18 05:12:58;;;;;;;27.85;12.15;;;;;;;12.70;80.24;101924.81;4981091;28;20117;-42
2023/02/18 05:15:24;;;;;;;26.65;11.95;;;;;;;12.65;80.36;101940.41;4985002;28;20026;-52
2023/02/18 05:17:49;;;;;;;25.60;10.95;;;;;;;12.88;79.29;101930.44;4980802;28;20044;-45
2023/02/18 05:20:15;;;;;;;22.30;10.10;;;;;;;12.75;79.77;101916.22;4967252;28;20030;-43
2023/02/18 05:22:40;;;;;;;21.88;9.48;;;;;;;12.86;79.84;101919.06;4981489;28;20071;-41
2023/02/18 05:25:06;;;;;;;24.15;9.40;;;;;;;12.63;81.12;101915.94;4984408;28;20031;-44
2023/02/18 05:27:32;;;;;;;17.27;8.48;;;;;;;12.64;80.16;101915.09;4985374;28;20053;-45
2023/02/18 05:29:57;;;;;;;17.50;8.52;;;;;;;12.85;79.75;101917.31;4982973;28;20045;-46
2023/02/18 05:32:23;;;;;;;20.33;9.07;;;;;;;12.59;80.29;101914.13;4984862;28;20195;-45
2023/02/18 05:34:48;;;;;;;17.13;8.52;;;;;;;12.41;81.10;101911.09;4982464;28;20070;-41
2023/02/18 05:37:14;;;;;;;18.38;8.57;;;;;;;12.71;79.98;101903.91;4985447;28;20038;-44
2023/02/18 05:39:40;;;;;;;17.58;8.93;;;;;;;12.93;79.47;101900.00;4981805;28;20432;-44
2023/02/18 05:42:05;;;;;;;20.65;9.10;;;;;;;12.86;79.51;101903.38;4985433;28;20546;-44
2023/02/18 05:44:31;;;;;;;20.25;9.38;;;;;;;12.80;80.03;101890.16;4984225;28;20455;-47
2023/02/18 05:47:02;;;;;;;21.65;10.13;;;;;;;12.77;79.73;101900.53;4980789;28;20065;-45
2023/02/18 05:49:28;;;;;;;21.83;10.40;;;;;;;12.66;79.93;101900.34;4984069;28;20108;-46
2023/02/18 05:51:54;;;;;;;23.27;9.82;;;;;;;12.91;78.90;101894.75;4982791;28;20108;-45
2023/02/18 05:54:20;;;;;;;22.80;10.05;;;;;;;12.38;81.11;101898.84;4988136;28;20039;-45
2023/02/18 05:56:45;;;;;;;20.77;9.88;;;;;;;12.76;79.55;101906.63;4984114;28;20033;-43
2023/02/18 05:59:11;;;;;;;24.02;9.75;;;;;;;12.56;80.25;101901.84;4987770;28;20080;-44
2023/02/18 06:01:36;;;;;;;21.42;9.70;;;;;;;12.94;79.00;101892.19;4987901;28;20026;-45
2023/02/18 06:04:01;;;;;;;27.17;10.55;;;;;;;12.82;78.66;101894.56;4984275;28;20512;-45
2023/02/18 06:06:27;;;;;;;26.40;10.60;;;;;;;12.44;79.90;101895.50;4970375;28;20125;-44
2023/02/18 06:08:53;;;;;;;25.38;10.32;;;;;;;12.62;79.87;101902.84;4984864;28;20068;-44
2023/02/18 06:11:18;;;;;;;30.55;10.73;;;;;;;12.50;80.12;101911.31;4988098;28;20034;-43
2023/02/18 06:13:43;;;;;;;29.60;10.95;;;;;;;12.74;79.02;101905.72;4983779;28;20038;-42
2023/02/18 06:16:09;;;;;;;25.75;9.77;;;;;;;12.65;79.16;101908.13;4987747;28;20035;-43
2023/02/18 06:18:34;;;;;;;28.95;9.50;;;;;;;12.53;79.31;101904.41;4988252;28;20040;-45
2023/02/18 06:20:59;;;;;;;28.98;9.43;;;;;;;12.60;79.25;101901.09;4984676;28;20030;-44
2023/02/18 06:23:25;;;;;;;26.15;8.60;;;;;;;12.61;79.22;101888.91;4989052;28;20035;-43
2023/02/18 06:25:50;;;;;;;28.95;8.50;;;;;;;12.45;79.50;101889.38;4984725;28;20202;-45
2023/02/18 06:28:16;;;;;;;28.42;7.97;;;;;;;12.63;78.95;101900.25;4970787;28;20468;-42
2023/02/18 06:30:42;;;;;;;26.05;7.93;;;;;;;12.80;77.83;101901.50;4984132;28;20039;-42
2023/02/18 06:33:08;;;;;;;25.75;7.82;;;;;;;12.26;80.40;101895.94;4986046;28;20034;-44
2023/02/18 06:35:33;;;;;;;27.10;8.57;;;;;;;12.32;79.63;101895.22;4986859;28;20040;-43
2023/02/18 06:37:59;;;;;;;26.50;8.48;;;;;;;12.53;78.66;101866.91;4982614;28;20412;-44
2023/02/18 06:40:24;;;;;;;33.65;8.50;;;;;;;12.60;78.64;101895.84;4986928;28;20042;-45
2023/02/18 06:42:50;;;;;;;26.52;7.75;;;;;;;12.23;80.24;101893.28;4983242;28;20039;-45
2023/02/18 06:45:15;;;;;;;22.05;7.63;;;;;;;12.15;80.17;101895.69;4988018;28;20064;-47
2023/02/18 06:47:41;;;;;;;23.52;7.50;;;;;;;12.58;78.56;101880.97;4984149;28;20041;-45
2023/02/18 06:50:07;;;;;;;22.48;6.82;;;;;;;12.43;78.70;101896.34;4987647;28;20050;-44
2023/02/18 06:52:33;;;;;;;21.50;6.35;;;;;;;13.10;76.48;101890.75;4987121;28;20038;-44
2023/02/18 06:54:59;;;;;;;23.15;5.22;;;;;;;12.90;76.63;101900.84;4983485;28;20054;-45
2023/02/18 06:57:24;;;;;;;20.17;5.13;;;;;;;12.55;77.52;101894.88;4989141;28;20093;-44
2023/02/18 06:59:49;;;;;;;19.13;4.80;;;;;;;12.31;77.91;101893.47;4987622;28;20048;-43
2023/02/18 07:02:15;;;;;;;20.20;4.55;;;;;;;12.58;77.71;101897.53;4970813;28;20500;-43
2023/02/18 07:04:40;;;;;;;22.17;4.70;;;;;;;12.66;76.61;101889.88;4983406;28;20096;-43
2023/02/18 07:07:05;;;;;;;23.42;5.22;;;;;;;12.47;76.80;101862.44;4986750;28;20509;-43
2023/02/18 07:09:31;;;;;;;24.15;4.28;;;;;;;12.25;77.73;101878.50;4986590;28;20134;-43
2023/02/18 07:11:57;;;;;;;24.50;4.18;;;;;;;12.32;76.13;101888.22;4982797;28;20042;-48
2023/02/18 07:14:23;;;;;;;18.17;3.75;;;;;;;12.29;76.09;101875.09;4987566;28;20038;-46
2023/02/18 07:16:49;;;;;;;24.55;3.95;;;;;;;12.45;75.90;101887.66;4982714;28;20031;-44
2023/02/18 07:19:14;;;;;;;22.50;3.13;;;;;;;12.47;74.92;101882.47;4986410;28;20034;-45
2023/02/18 07:21:40;;;;;;;21.13;4.05;;;;;;;12.24;76.08;101884.59;4984428;28;20042;-43
2023/02/18 07:24:05;;;;;;;21.67;3.80;;;;;;;12.32;74.54;101887.38;4987419;28;20041;-46
2023/02/18 07:26:31;;;;;;;25.00;3.60;;;;;;;12.08;75.23;101883.34;4987598;28;20073;-46
2023/02/18 07:28:56;;;;;;;24.25;4.05;;;;;;;12.49;74.57;101886.91;4982673;28;20061;-45
2023/02/18 07:31:21;;;;;;;21.90;3.60;;;;;;;12.58;74.30;101889.69;4986010;28;20538;-45
2023/02/18 07:33:47;;;;;;;20.33;3.33;;;;;;;12.78;73.24;101877.03;4982913;28;20080;-42
2023/02/18 07:36:12;;;;;;;22.75;3.67;;;;;;;12.46;73.97;101876.34;4987320;28;20030;-43
2023/02/18 07:38:37;;;;;;;20.50;3.42;;;;;;;12.28;74.89;101877.69;4982970;28;20503;-44
2023/02/18 07:41:03;;;;;;;19.05;3.45;;;;;;;12.31;74.00;101886.50;4985896;28;20030;-43
2023/02/18 07:43:28;;;;;;;17.85;3.38;;;;;;;12.09;74.44;101895.56;4985959;28;20080;-45
2023/02/18 07:45:53;;;;;;;21.13;3.15;;;;;;;12.51;73.32;101881.69;4983669;28;20046;-41
2023/02/18 07:48:19;;;;;;;19.95;3.30;;;;;;;12.29;74.22;101887.28;4991195;28;20160;-44
2023/02/18 07:50:45;;;;;;;18.80;3.67;;;;;;;12.46;73.20;101883.31;4991802;28;20047;-48
2023/02/18 07:53:12;;;;;;;16.88;2.75;;;;;;;12.22;73.72;101880.16;4986243;28;20041;-45
2023/02/18 07:55:49;;;;;;;22.33;3.58;;;;;;;12.45;73.14;101885.03;4988485;28;20306;-43
2023/02/18 07:58:26;;;;;;;19.48;3.22;;;;;;;12.15;73.36;101895.69;4985458;28;20022;-46
2023/02/18 08:00:53;;;;;;;24.30;3.13;;;;;;;12.36;72.97;101894.44;4987130;28;20038;-44
2023/02/18 08:03:21;;;;;;;19.23;2.95;;;;;;;12.33;72.42;101883.88;4986814;28;20481;-46
2023/02/18 08:05:50;;;;;;;18.65;3.10;;;;;;;12.38;72.60;101884.91;4983635;28;20089;-44
2023/02/18 08:08:19;;;;;;;22.48;3.67;;;;;;;12.27;72.25;101888.97;4987195;28;20026;-46
2023/02/18 08:10:45;;;;;;;22.88;3.67;;;;;;;11.98;73.36;101907.50;4982608;28;20042;-43
2023/02/18 08:13:11;;;;;;;19.38;3.53;;;;;;;12.27;72.70;101892.47;4986307;28;20065;-43
2023/02/18 08:15:37;;;;;;;18.90;3.38;;;;;;;12.09;73.19;101884.22;4982438;28;20085;-45
2023/02/18 08:18:04;;;;;;;20.35;3.05;;;;;;;12.18;73.37;101885.34;4985754;28;20041;-43
2023/02/18 08:20:29;;;;;;;16.63;3.05;;;;;;;12.26;73.19;101874.16;4986737;28;20048;-48
2023/02/18 08:22:55;;;;;;;20.80;3.30;;;;;;;12.56;73.07;101893.16;4981274;28;20456;-44
2023/02/18 08:25:20;;;;;;;20.75;3.42;;;;;;;12.42;73.69;101886.72;4985570;28;20030;-44
2023/02/18 08:27:45;;;;;;;23.83;3.65;;;;;;;12.31;74.59;101889.09;4981789;28;20408;-43
2023/02/18 08:30:11;;;;;;;15.20;3.15;;;;;;;11.96;75.23;101887.38;4985150;28;20034;-45
2023/02/18 08:32:37;;;;;;;17.08;3.30;;;;;;;12.02;74.97;101890.16;4985595;28;20504;-43
2023/02/18 08:35:04;;;;;;;21.83;3.20;;;;;;;12.11;75.26;101888.66;4982358;28;20048;-45
2023/02/18 08:37:29;;;;;;;21.98;3.40;;;;;;;12.32;73.69;101869.94;4985313;28;20110;-44
2023/02/18 08:39:54;;;;;;;18.73;3.30;;;;;;;12.31;74.16;101891.72;4981909;28;20038;-47
2023/02/18 08:42:20;;;;;;;24.63;3.80;;;;;;;12.47;73.20;101895.56;4985947;28;20098;-44
2023/02/18 08:44:45;;;;;;;22.88;4.00;;;;;;;12.59;72.72;101881.00;4963653;28;20093;-44
2023/02/18 08:47:11;;;;;;;18.33;3.05;;;;;;;12.64;71.85;101878.47;4984934;28;20026;-46
2023/02/18 08:49:36;;;;;;;20.42;3.58;;;;;;;12.58;71.95;101897.53;4982150;28;20077;-42
2023/02/18 08:52:03;;;;;;;19.98;3.42;;;;;;;12.42;72.36;101895.47;4987684;28;20022;-48
2023/02/18 08:54:29;;;;;;;21.88;3.10;;;;;;;12.12;72.99;101920.91;4988432;28;20500;-42
2023/02/18 08:56:56;;;;;;;20.88;3.25;;;;;;;12.42;71.98;101918.09;4984061;28;20532;-44
2023/02/18 08:59:22;;;;;;;20.48;3.30;;;;;;;12.60;71.71;101914.16;4987012;28;20042;-44
2023/02/18 09:01:48;;;;;;;20.10;3.50;;;;;;;12.05;72.65;101918.97;4982369;28;20034;-43
2023/02/18 09:04:13;;;;;;;26.10;3.63;;;;;;;12.39;71.71;101928.47;4986860;28;20039;-46
2023/02/18 09:06:38;;;;;;;18.92;3.22;;;;;;;12.72;71.52;101924.00;4982605;28;20050;-46
2023/02/18 09:09:04;;;;;;;20.65;3.08;;;;;;;12.40;71.69;101938.09;4985938;28;20026;-44
2023/02/18 09:11:29;;;;;;;17.40;3.10;;;;;;;12.47;71.99;101946.13;4967794;28;20121;-39
2023/02/18 09:13:55;;;;;;;22.77;3.33;;;;;;;12.65;70.83;101924.72;4981456;28;21391;-44
2023/02/18 09:16:20;;;;;;;26.52;3.25;;;;;;;12.59;71.17;101932.44;4984639;28;20166;-46
2023/02/18 09:18:47;;;;;;;22.67;3.22;;;;;;;12.47;71.00;101921.69;4981385;28;20062;-44
2023/02/18 09:21:14;;;;;;;23.13;3.33;;;;;;;12.72;71.13;101921.38;4984922;28;20045;-50
2023/02/18 09:23:40;;;;;;;17.10;3.05;;;;;;;12.46;71.54;101922.53;4981156;28;20038;-44
2023/02/18 09:26:08;;;;;;;15.70;2.60;;;;;;;12.63;71.54;101939.50;4986399;28;20046;-43
2023/02/18 09:28:34;;;;;;;15.32;2.70;;;;;;;12.99;69.94;101931.56;4988918;28;20113;-43
2023/02/18 09:31:07;;;;;;;16.30;2.60;;;;;;;12.63;69.90;101936.00;4984828;28;20081;-44
2023/02/18 09:33:37;;;;;;;16.20;2.80;;;;;;;12.80;70.14;101932.03;4988969;28;20393;-46
2023/02/18 09:36:04;;;;;;;22.15;3.05;;;;;;;12.77;70.44;101932.84;4985745;28;20034;-46
2023/02/18 09:38:29;;;;;;;19.33;3.03;;;;;;;12.78;70.79;101955.53;4989908;28;20034;-50
2023/02/18 09:40:58;;;;;;;20.25;3.00;;;;;;;12.44;71.46;101953.88;4984674;28;20030;-46
2023/02/18 09:43:31;;;;;;;20.02;3.05;;;;;;;12.44;71.71;101966.97;4988288;28;20453;-43
2023/02/18 09:45:59;;;;;;;19.58;2.90;;;;;;;12.58;71.57;101964.66;4984133;28;20066;-44
2023/02/18 09:48:35;;;;;;;15.95;2.70;;;;;;;13.10;69.27;101937.88;4987771;28;20493;-47
2023/02/18 09:51:01;;;;;;;17.15;2.58;;;;;;;13.14;69.56;101949.31;4984720;28;20562;-45
2023/02/18 09:53:27;;;;;;;20.25;2.70;;;;;;;12.74;70.46;101939.75;4987427;28;20097;-42
2023/02/18 09:55:55;;;;;;;19.55;2.78;;;;;;;13.10;69.20;101957.94;4984657;28;20045;-44
2023/02/18 09:58:25;;;;;;;21.98;2.83;;;;;;;12.89;70.60;101950.53;4988560;28;20039;-44
2023/02/18 10:01:14;;;;;;;15.55;2.50;;;;;;;13.06;69.90;101966.56;4984000;28;20070;-44
2023/02/18 10:03:42;;;;;;;16.10;2.70;;;;;;;12.78;70.93;101972.97;4984272;28;20208;-41
2023/02/18 10:06:17;;;;;;;19.25;2.78;;;;;;;12.96;70.47;101962.88;4988044;28;20034;-44
2023/02/18 10:08:46;;;;;;;19.05;3.20;;;;;;;12.68;71.13;101955.31;4985025;28;20042;-43
2023/02/18 10:11:34;;;;;;;15.32;3.13;;;;;;;12.84;70.78;101974.00;4987969;28;20041;-46
2023/02/18 10:14:01;;;;;;;19.88;2.58;;;;;;;13.06;70.68;101969.19;4984568;28;20039;-42
2023/02/18 10:16:27;;;;;;;19.63;3.03;;;;;;;13.09;70.41;101983.25;4988289;28;20058;-43
2023/02/18 10:18:56;;;;;;;18.85;2.60;;;;;;;12.99;70.03;101997.00;4985017;28;20035;-45
2023/02/18 10:21:25;;;;;;;14.85;2.20;;;;;;;13.16;70.10;101989.53;4988113;28;20062;-43
2023/02/18 10:24:27;;;;;;;16.02;2.78;;;;;;;13.16;70.65;101987.78;4983204;28;20045;-46
2023/02/18 10:26:53;;;;;;;13.27;2.40;;;;;;;13.02;71.08;101981.34;4984112;28;20456;-42
2023/02/18 10:29:20;;;;;;;12.20;2.30;;;;;;;13.23;70.31;101989.69;4987243;28;20057;-44
2023/02/18 10:32:18;;;;;;;16.45;2.20;;;;;;;13.35;69.71;101992.56;4983486;28;20042;-46
2023/02/18 10:35:18;;;;;;;14.20;2.50;;;;;;;12.96;70.45;101986.44;4976501;28;20030;-47
2023/02/18 10:37:53;;;;;;;12.48;2.38;;;;;;;12.98;70.46;101993.50;4982982;28;20041;-44
2023/02/18 10:40:21;;;;;;;17.05;2.30;;;;;;;13.49;69.47;101997.16;4986656;28;20034;-44
2023/02/18 10:43:14;;;;;;;13.80;2.25;;;;;;;13.31;69.64;101995.94;4983153;28;20038;-43
2023/02/18 10:46:08;;;;;;;12.93;2.08;;;;;;;13.65;68.89;102005.34;4983124;28;20134;-47
2023/02/18 10:49:05;;;;;;;14.55;1.92;;;;;;;13.65;69.56;101999.22;4990161;28;20406;-48
2023/02/18 10:51:33;;;;;;;15.63;2.05;;;;;;;13.76;68.62;101995.94;4985264;28;20125;-45
2023/02/18 10:53:59;;;;;;;13.18;2.30;;;;;;;13.45;69.08;101993.59;4984050;28;20037;-45
2023/02/18 10:56:40;;;;;;;14.73;2.15;;;;;;;13.75;69.21;101978.44;4988016;28;20050;-44
2023/02/18 10:59:13;;;;;;;15.02;2.17;;;;;;;13.35;69.99;101992.56;4967455;28;20042;-43
2023/02/18 11:01:41;;;;;;;13.88;2.17;;;;;;;13.30;70.14;101993.28;4984292;28;20034;-44
2023/02/18 11:04:20;;;;;;;11.15;1.92;;;;;;;13.85;69.07;101986.47;4988293;28;20451;-44
2023/02/18 11:06:50;;;;;;;13.80;2.35;;;;;;;13.59;68.94;101996.50;4983188;28;20041;-44
2023/02/18 11:09:25;;;;;;;12.45;2.33;;;;;;;13.59;69.55;101993.88;4987263;28;20084;-45
2023/02/18 11:11:51;;;;;;;13.43;2.35;;;;;;;13.19;70.55;101994.81;4982866;28;20042;-45
2023/02/18 11:14:36;;;;;;;9.27;1.98;;;;;;;13.14;70.59;102009.53;4986605;28;20451;-44
2023/02/18 11:17:13;;;;;;;11.70;2.40;;;;;;;13.58;69.84;102010.44;4983667;28;20065;-45
2023/02/18 11:19:39;;;;;;;12.00;2.05;;;;;;;13.62;69.20;102015.75;4965739;28;20141;-45
2023/02/18 11:22:07;;;;;;;17.33;2.70;;;;;;;13.82;68.86;101989.94;4987721;28;20420;-46